Terminal Aerodrome Forecast
Issued by NWS Wilmington, OH

Home | Current Version | Previous Version | Text Only | Print | Product List | Glossary On
Versions: 1 2 3 4 5 6 7 8 9 10 11 12 13 14 15 16 17 18 19 20 21 22
000
FTUS41 KILN 212347
TAFCVG
TAF
KCVG 212347Z 2200/2306 21005KT P6SM SCT120 BKN250
     FM220700 21004KT P6SM SCT250
     FM221300 22008KT P6SM SCT070
     FM221700 22012KT P6SM VCTS BKN045CB
     FM221900 23012KT P6SM VCTS BKN045CB
     FM222200 25010KT P6SM BKN050
     FM230200 29008KT P6SM SCT040=

USA.gov is the U.S. government's official web portal to all federal, state and local government web resources and services.